sensor_id;sensor_type;location;lat;lon;timestamp;pressure;altitude;pressure_sealevel;temperature;humidity
10310;BME280;5200;43.236;27.986;2024-02-23T00:01:50;100074.59;;;4.86;100.00
10310;BME280;5200;43.236;27.986;2024-02-23T00:04:17;100072.94;;;4.85;100.00
10310;BME280;5200;43.236;27.986;2024-02-23T00:06:45;100074.06;;;4.81;100.00
10310;BME280;5200;43.236;27.986;2024-02-23T00:09:13;100062.34;;;4.74;100.00
10310;BME280;5200;43.236;27.986;2024-02-23T00:11:40;100061.91;;;4.68;100.00
10310;BME280;5200;43.236;27.986;2024-02-23T00:14:10;100053.97;;;4.56;100.00
10310;BME280;5200;43.236;27.986;2024-02-23T00:16:39;100056.00;;;4.51;100.00
10310;BME280;5200;43.236;27.986;2024-02-23T00:19:07;100052.22;;;4.42;100.00
10310;BME280;5200;43.236;27.986;2024-02-23T00:21:35;100045.25;;;4.43;100.00
10310;BME280;5200;43.236;27.986;2024-02-23T00:24:02;100046.16;;;4.42;100.00
10310;BME280;5200;43.236;27.986;2024-02-23T00:26:30;100046.16;;;4.42;100.00
10310;BME280;5200;43.236;27.986;2024-02-23T00:28:57;100043.00;;;4.37;100.00
10310;BME280;5200;43.236;27.986;2024-02-23T00:31:24;100037.94;;;4.35;100.00
10310;BME280;5200;43.236;27.986;2024-02-23T00:33:51;100036.16;;;4.36;100.00
10310;BME280;5200;43.236;27.986;2024-02-23T00:36:18;100039.66;;;4.35;100.00
10310;BME280;5200;43.236;27.986;2024-02-23T00:38:45;100041.56;;;4.33;100.00
10310;BME280;5200;43.236;27.986;2024-02-23T00:41:11;100033.19;;;4.28;100.00
10310;BME280;5200;43.236;27.986;2024-02-23T00:43:40;100028.91;;;4.27;100.00
10310;BME280;5200;43.236;27.986;2024-02-23T00:46:07;100028.91;;;4.27;100.00
10310;BME280;5200;43.236;27.986;2024-02-23T00:48:34;100034.94;;;4.27;100.00
10310;BME280;5200;43.236;27.986;2024-02-23T00:51:01;100028.81;;;4.28;100.00
10310;BME280;5200;43.236;27.986;2024-02-23T00:53:30;100025.47;;;4.26;100.00
10310;BME280;5200;43.236;27.986;2024-02-23T00:55:57;100018.59;;;4.25;100.00
10310;BME280;5200;43.236;27.986;2024-02-23T00:58:24;100023.69;;;4.27;100.00
10310;BME280;5200;43.236;27.986;2024-02-23T01:00:52;100017.56;;;4.28;100.00
10310;BME280;5200;43.236;27.986;2024-02-23T01:03:19;100012.34;;;4.28;100.00
10310;BME280;5200;43.236;27.986;2024-02-23T01:05:46;100015.88;;;4.27;100.00
10310;BME280;5200;43.236;27.986;2024-02-23T01:08:13;100008.06;;;4.27;100.00
10310;BME280;5200;43.236;27.986;2024-02-23T01:10:40;100005.47;;;4.27;100.00
10310;BME280;5200;43.236;27.986;2024-02-23T01:13:06;100007.13;;;4.28;100.00
10310;BME280;5200;43.236;27.986;2024-02-23T01:15:33;100011.44;;;4.29;100.00
10310;BME280;5200;43.236;27.986;2024-02-23T01:18:03;100005.28;;;4.30;100.00
10310;BME280;5200;43.236;27.986;2024-02-23T01:20:33;99998.19;;;4.32;100.00
10310;BME280;5200;43.236;27.986;2024-02-23T01:23:00;99997.06;;;4.36;100.00
10310;BME280;5200;43.236;27.986;2024-02-23T01:25:26;99997.81;;;4.38;100.00
10310;BME280;5200;43.236;27.986;2024-02-23T01:27:53;99982.78;;;4.29;100.00
10310;BME280;5200;43.236;27.986;2024-02-23T01:30:20;99994.47;;;4.36;100.00
10310;BME280;5200;43.236;27.986;2024-02-23T01:32:47;99987.19;;;4.41;100.00
10310;BME280;5200;43.236;27.986;2024-02-23T01:35:17;99990.31;;;4.46;100.00
10310;BME280;5200;43.236;27.986;2024-02-23T01:37:44;99983.25;;;4.48;100.00
10310;BME280;5200;43.236;27.986;2024-02-23T01:40:11;99972.63;;;4.51;100.00
10310;BME280;5200;43.236;27.986;2024-02-23T01:42:37;99967.31;;;4.53;100.00
10310;BME280;5200;43.236;27.986;2024-02-23T01:45:05;99968.06;;;4.55;100.00
10310;BME280;5200;43.236;27.986;2024-02-23T01:47:32;99962.75;;;4.56;100.00
10310;BME280;5200;43.236;27.986;2024-02-23T01:50:00;99959.94;;;4.59;100.00
10310;BME280;5200;43.236;27.986;2024-02-23T01:52:28;99958.06;;;4.61;100.00
10310;BME280;5200;43.236;27.986;2024-02-23T01:54:56;99953.78;;;4.60;100.00
10310;BME280;5200;43.236;27.986;2024-02-23T01:57:23;99957.13;;;4.62;100.00
10310;BME280;5200;43.236;27.986;2024-02-23T01:59:51;99955.47;;;4.61;100.00
10310;BME280;5200;43.236;27.986;2024-02-23T02:02:18;99941.06;;;4.56;100.00
10310;BME280;5200;43.236;27.986;2024-02-23T02:04:45;99951.19;;;4.60;100.00
10310;BME280;5200;43.236;27.986;2024-02-23T02:07:12;99946.19;;;4.57;100.00
10310;BME280;5200;43.236;27.986;2024-02-23T02:09:40;99956.38;;;4.60;100.00
10310;BME280;5200;43.236;27.986;2024-02-23T02:12:08;99949.53;;;4.59;100.00
10310;BME280;5200;43.236;27.986;2024-02-23T02:14:34;99945.13;;;4.60;100.00
10310;BME280;5200;43.236;27.986;2024-02-23T02:17:01;99947.00;;;4.58;100.00
10310;BME280;5200;43.236;27.986;2024-02-23T02:19:28;99945.97;;;4.60;100.00
10310;BME280;5200;43.236;27.986;2024-02-23T02:21:55;99951.91;;;4.62;100.00
10310;BME280;5200;43.236;27.986;2024-02-23T02:24:22;99949.31;;;4.62;100.00
10310;BME280;5200;43.236;27.986;2024-02-23T02:26:50;99962.03;;;4.67;100.00
10310;BME280;5200;43.236;27.986;2024-02-23T02:29:17;99956.00;;;4.66;100.00
10310;BME280;5200;43.236;27.986;2024-02-23T02:31:44;99957.47;;;4.71;100.00
10310;BME280;5200;43.236;27.986;2024-02-23T02:34:11;99966.75;;;4.75;100.00
10310;BME280;5200;43.236;27.986;2024-02-23T02:36:40;99966.44;;;4.79;100.00
10310;BME280;5200;43.236;27.986;2024-02-23T02:39:06;99961.03;;;4.82;100.00
10310;BME280;5200;43.236;27.986;2024-02-23T02:41:33;99953.75;;;4.87;100.00
10310;BME280;5200;43.236;27.986;2024-02-23T02:44:02;99945.63;;;4.92;100.00
10310;BME280;5200;43.236;27.986;2024-02-23T02:46:28;99946.13;;;4.97;100.00
10310;BME280;5200;43.236;27.986;2024-02-23T02:48:55;99949.03;;;5.05;100.00
10310;BME280;5200;43.236;27.986;2024-02-23T02:51:22;99942.47;;;5.13;100.00
10310;BME280;5200;43.236;27.986;2024-02-23T02:53:49;99939.25;;;5.22;100.00
10310;BME280;5200;43.236;27.986;2024-02-23T02:56:16;99935.16;;;5.30;100.00
10310;BME280;5200;43.236;27.986;2024-02-23T02:58:42;99933.94;;;5.36;100.00
10310;BME280;5200;43.236;27.986;2024-02-23T03:01:11;99931.84;;;5.41;100.00
10310;BME280;5200;43.236;27.986;2024-02-23T03:03:38;99936.59;;;5.47;100.00
10310;BME280;5200;43.236;27.986;2024-02-23T03:06:05;99933.06;;;5.48;100.00
10310;BME280;5200;43.236;27.986;2024-02-23T03:08:33;99937.13;;;5.53;100.00
10310;BME280;5200;43.236;27.986;2024-02-23T03:11:00;99942.25;;;5.54;100.00
10310;BME280;5200;43.236;27.986;2024-02-23T03:13:27;99945.59;;;5.56;100.00
10310;BME280;5200;43.236;27.986;2024-02-23T03:15:54;99943.81;;;5.57;100.00
10310;BME280;5200;43.236;27.986;2024-02-23T03:18:22;99945.81;;;5.53;100.00
10310;BME280;5200;43.236;27.986;2024-02-23T03:20:49;99953.50;;;5.55;100.00
10310;BME280;5200;43.236;27.986;2024-02-23T03:23:16;99945.81;;;5.53;100.00
10310;BME280;5200;43.236;27.986;2024-02-23T03:25:43;99951.84;;;5.54;100.00
10310;BME280;5200;43.236;27.986;2024-02-23T03:28:10;99956.25;;;5.53;100.00
10310;BME280;5200;43.236;27.986;2024-02-23T03:30:36;99953.72;;;5.51;100.00
10310;BME280;5200;43.236;27.986;2024-02-23T03:33:04;99949.47;;;5.50;100.00
10310;BME280;5200;43.236;27.986;2024-02-23T03:35:32;99954.69;;;5.50;100.00
10310;BME280;5200;43.236;27.986;2024-02-23T03:37:59;99946.13;;;5.48;100.00
10310;BME280;5200;43.236;27.986;2024-02-23T03:40:25;99942.69;;;5.48;100.00
10310;BME280;5200;43.236;27.986;2024-02-23T03:42:52;99945.31;;;5.48;100.00
10310;BME280;5200;43.236;27.986;2024-02-23T03:45:19;99941.81;;;5.47;100.00
10310;BME280;5200;43.236;27.986;2024-02-23T03:47:46;99936.75;;;5.46;100.00
10310;BME280;5200;43.236;27.986;2024-02-23T03:50:13;99934.00;;;5.47;100.00
10310;BME280;5200;43.236;27.986;2024-02-23T03:52:41;99934.72;;;5.49;100.00
10310;BME280;5200;43.236;27.986;2024-02-23T03:55:08;99931.38;;;5.47;100.00
10310;BME280;5200;43.236;27.986;2024-02-23T03:57:35;99931.19;;;5.50;100.00
10310;BME280;5200;43.236;27.986;2024-02-23T04:00:03;99924.19;;;5.51;100.00
10310;BME280;5200;43.236;27.986;2024-02-23T04:02:31;99925.75;;;5.54;100.00
10310;BME280;5200;43.236;27.986;2024-02-23T04:04:58;99927.63;;;5.51;100.00
10310;BME280;5200;43.236;27.986;2024-02-23T04:07:25;99930.25;;;5.51;100.00
10310;BME280;5200;43.236;27.986;2024-02-23T04:09:53;99921.59;;;5.51;100.00
10310;BME280;5200;43.236;27.986;2024-02-23T04:12:20;99920.75;;;5.50;100.00
10310;BME280;5200;43.236;27.986;2024-02-23T04:14:47;99916.38;;;5.51;100.00
10310;BME280;5200;43.236;27.986;2024-02-23T04:17:15;99924.06;;;5.53;100.00
10310;BME280;5200;43.236;27.986;2024-02-23T04:19:43;99916.38;;;5.51;100.00
10310;BME280;5200;43.236;27.986;2024-02-23T04:22:10;99924.06;;;5.53;100.00
10310;BME280;5200;43.236;27.986;2024-02-23T04:24:38;99911.97;;;5.51;100.00
10310;BME280;5200;43.236;27.986;2024-02-23T04:27:06;99913.63;;;5.53;100.00
10310;BME280;5200;43.236;27.986;2024-02-23T04:29:34;99918.16;;;5.50;100.00
10310;BME280;5200;43.236;27.986;2024-02-23T04:32:01;99908.63;;;5.49;100.00
10310;BME280;5200;43.236;27.986;2024-02-23T04:34:28;99911.38;;;5.48;100.00
10310;BME280;5200;43.236;27.986;2024-02-23T04:36:55;99917.41;;;5.48;100.00
10310;BME280;5200;43.236;27.986;2024-02-23T04:39:22;99915.53;;;5.50;100.00
10310;BME280;5200;43.236;27.986;2024-02-23T04:41:49;99924.28;;;5.49;100.00
10310;BME280;5200;43.236;27.986;2024-02-23T04:44:17;99916.78;;;5.45;100.00
10310;BME280;5200;43.236;27.986;2024-02-23T04:46:44;99930.56;;;5.47;100.00
10310;BME280;5200;43.236;27.986;2024-02-23T04:49:10;99929.00;;;5.44;100.00
10310;BME280;5200;43.236;27.986;2024-02-23T04:51:38;99930.88;;;5.42;100.00
10310;BME280;5200;43.236;27.986;2024-02-23T04:54:05;99920.16;;;5.34;100.00
10310;BME280;5200;43.236;27.986;2024-02-23T04:56:32;99931.19;;;5.38;100.00
10310;BME280;5200;43.236;27.986;2024-02-23T04:58:59;99928.81;;;5.35;100.00
10310;BME280;5200;43.236;27.986;2024-02-23T05:01:27;99928.91;;;5.33;100.00
10310;BME280;5200;43.236;27.986;2024-02-23T05:03:54;99924.31;;;5.24;100.00
10310;BME280;5200;43.236;27.986;2024-02-23T05:06:21;99934.34;;;5.30;100.00
10310;BME280;5200;43.236;27.986;2024-02-23T05:08:48;99936.13;;;5.29;100.00
10310;BME280;5200;43.236;27.986;2024-02-23T05:11:15;99940.41;;;5.30;100.00
10310;BME280;5200;43.236;27.986;2024-02-23T05:13:42;99936.00;;;5.31;100.00
10310;BME280;5200;43.236;27.986;2024-02-23T05:16:09;99937.25;;;5.38;100.00
10310;BME280;5200;43.236;27.986;2024-02-23T05:18:37;99940.19;;;5.46;100.00
10310;BME280;5200;43.236;27.986;2024-02-23T05:21:04;99933.16;;;5.60;100.00
10310;BME280;5200;43.236;27.986;2024-02-23T05:23:31;99941.78;;;5.73;100.00
10310;BME280;5200;43.236;27.986;2024-02-23T05:25:58;99929.69;;;5.72;100.00
10310;BME280;5200;43.236;27.986;2024-02-23T05:28:24;99938.81;;;5.90;100.00
10310;BME280;5200;43.236;27.986;2024-02-23T05:30:51;99922.75;;;5.84;100.00
10310;BME280;5200;43.236;27.986;2024-02-23T05:33:18;99928.78;;;5.97;100.00
10310;BME280;5200;43.236;27.986;2024-02-23T05:35:47;99940.19;;;6.20;100.00
10310;BME280;5200;43.236;27.986;2024-02-23T05:38:14;99932.66;;;6.28;100.00
10310;BME280;5200;43.236;27.986;2024-02-23T05:40:42;99930.97;;;6.51;100.00
10310;BME280;5200;43.236;27.986;2024-02-23T05:43:09;99939.53;;;6.65;100.00
10310;BME280;5200;43.236;27.986;2024-02-23T05:45:36;99930.44;;;6.70;100.00
10310;BME280;5200;43.236;27.986;2024-02-23T05:48:04;99923.06;;;6.75;100.00
10310;BME280;5200;43.236;27.986;2024-02-23T05:50:32;99938.56;;;7.01;100.00
10310;BME280;5200;43.236;27.986;2024-02-23T05:53:00;99938.94;;;7.19;100.00
10310;BME280;5200;43.236;27.986;2024-02-23T05:55:30;99938.50;;;7.36;100.00
10310;BME280;5200;43.236;27.986;2024-02-23T05:57:56;99941.91;;;7.59;100.00
10310;BME280;5200;43.236;27.986;2024-02-23T06:00:23;99924.91;;;7.76;100.00
10310;BME280;5200;43.236;27.986;2024-02-23T06:02:50;99937.56;;;8.03;100.00
10310;BME280;5200;43.236;27.986;2024-02-23T06:05:17;99935.38;;;8.20;100.00
10310;BME280;5200;43.236;27.986;2024-02-23T06:07:44;99960.94;;;8.39;100.00
10310;BME280;5200;43.236;27.986;2024-02-23T06:10:12;99961.41;;;8.44;100.00
10310;BME280;5200;43.236;27.986;2024-02-23T06:12:39;99949.84;;;8.46;100.00
10310;BME280;5200;43.236;27.986;2024-02-23T06:15:07;99938.31;;;8.49;100.00
10310;BME280;5200;43.236;27.986;2024-02-23T06:17:34;99941.63;;;8.72;100.00
10310;BME280;5200;43.236;27.986;2024-02-23T06:20:01;99958.66;;;8.99;100.00
10310;BME280;5200;43.236;27.986;2024-02-23T06:22:28;99955.44;;;9.16;100.00
10310;BME280;5200;43.236;27.986;2024-02-23T06:24:55;99955.28;;;9.39;100.00
10310;BME280;5200;43.236;27.986;2024-02-23T06:27:23;99944.34;;;9.64;100.00
10310;BME280;5200;43.236;27.986;2024-02-23T06:29:50;99955.75;;;9.94;100.00
10310;BME280;5200;43.236;27.986;2024-02-23T06:32:17;99950.84;;;10.30;100.00
10310;BME280;5200;43.236;27.986;2024-02-23T06:34:44;99947.56;;;10.47;100.00
10310;BME280;5200;43.236;27.986;2024-02-23T06:37:11;99953.09;;;10.44;100.00
10310;BME280;5200;43.236;27.986;2024-02-23T06:39:39;99945.88;;;10.36;100.00
10310;BME280;5200;43.236;27.986;2024-02-23T06:42:06;99954.22;;;10.61;100.00
10310;BME280;5200;43.236;27.986;2024-02-23T06:44:35;99945.06;;;10.75;100.00
10310;BME280;5200;43.236;27.986;2024-02-23T06:47:02;99956.09;;;11.08;100.00
10310;BME280;5200;43.236;27.986;2024-02-23T06:49:29;99947.28;;;11.36;100.00
10310;BME280;5200;43.236;27.986;2024-02-23T06:51:55;99938.50;;;11.46;100.00
10310;BME280;5200;43.236;27.986;2024-02-23T06:54:22;99927.41;;;11.42;100.00
10310;BME280;5200;43.236;27.986;2024-02-23T06:56:49;99933.25;;;11.46;100.00
10310;BME280;5200;43.236;27.986;2024-02-23T06:59:16;99939.63;;;11.33;100.00
10310;BME280;5200;43.236;27.986;2024-02-23T07:01:51;99933.06;;;11.10;100.00
10310;BME280;5200;43.236;27.986;2024-02-23T07:04:18;99944.19;;;11.04;100.00
10310;BME280;5200;43.236;27.986;2024-02-23T07:06:45;99939.19;;;11.00;100.00
10310;BME280;5200;43.236;27.986;2024-02-23T07:09:12;99946.41;;;10.89;100.00
10310;BME280;5200;43.236;27.986;2024-02-23T07:11:39;99946.72;;;10.76;100.00
10310;BME280;5200;43.236;27.986;2024-02-23T07:14:09;99942.69;;;10.72;100.00
10310;BME280;5200;43.236;27.986;2024-02-23T07:16:37;99932.59;;;10.57;100.00
10310;BME280;5200;43.236;27.986;2024-02-23T07:19:06;99935.91;;;10.60;100.00
10310;BME280;5200;43.236;27.986;2024-02-23T07:21:33;99940.38;;;10.49;100.00
10310;BME280;5200;43.236;27.986;2024-02-23T07:24:00;99932.19;;;10.33;100.00
10310;BME280;5200;43.236;27.986;2024-02-23T07:26:27;99938.41;;;10.32;100.00
10310;BME280;5200;43.236;27.986;2024-02-23T07:28:55;99938.94;;;10.26;100.00
10310;BME280;5200;43.236;27.986;2024-02-23T07:31:21;99935.19;;;10.19;100.00
10310;BME280;5200;43.236;27.986;2024-02-23T07:33:48;99935.19;;;10.19;100.00
10310;BME280;5200;43.236;27.986;2024-02-23T07:36:18;99929.78;;;10.10;100.00
10310;BME280;5200;43.236;27.986;2024-02-23T07:38:45;99929.94;;;10.09;100.00
10310;BME280;5200;43.236;27.986;2024-02-23T07:41:11;99918.72;;;9.97;100.00
10310;BME280;5200;43.236;27.986;2024-02-23T07:43:39;99940.84;;;10.04;100.00
10310;BME280;5200;43.236;27.986;2024-02-23T07:46:06;99931.16;;;9.95;100.00
10310;BME280;5200;43.236;27.986;2024-02-23T07:48:34;99935.31;;;10.07;100.00
10310;BME280;5200;43.236;27.986;2024-02-23T07:51:01;99931.16;;;10.14;100.00
10310;BME280;5200;43.236;27.986;2024-02-23T07:53:29;99939.78;;;10.36;100.00
10310;BME280;5200;43.236;27.986;2024-02-23T07:55:57;99939.38;;;10.50;100.00
10310;BME280;5200;43.236;27.986;2024-02-23T07:58:24;99935.22;;;10.67;100.00
10310;BME280;5200;43.236;27.986;2024-02-23T08:00:52;99944.03;;;10.95;100.00
10310;BME280;5200;43.236;27.986;2024-02-23T08:03:19;99937.03;;;11.24;100.00
10310;BME280;5200;43.236;27.986;2024-02-23T08:05:46;99941.22;;;11.54;100.00
10310;BME280;5200;43.236;27.986;2024-02-23T08:08:13;99934.97;;;11.82;100.00
10310;BME280;5200;43.236;27.986;2024-02-23T08:10:41;99945.41;;;12.12;100.00
10310;BME280;5200;43.236;27.986;2024-02-23T08:13:08;99942.25;;;12.26;100.00
10310;BME280;5200;43.236;27.986;2024-02-23T08:15:36;99926.41;;;12.44;100.00
10310;BME280;5200;43.236;27.986;2024-02-23T08:18:03;99939.44;;;12.63;100.00
10310;BME280;5200;43.236;27.986;2024-02-23T08:20:30;99940.72;;;12.59;100.00
10310;BME280;5200;43.236;27.986;2024-02-23T08:22:58;99930.16;;;12.59;100.00
10310;BME280;5200;43.236;27.986;2024-02-23T08:25:25;99940.84;;;12.76;100.00
10310;BME280;5200;43.236;27.986;2024-02-23T08:27:55;99943.84;;;12.99;100.00
10310;BME280;5200;43.236;27.986;2024-02-23T08:30:24;99952.72;;;13.24;100.00
10310;BME280;5200;43.236;27.986;2024-02-23T08:32:50;99943.22;;;13.31;100.00
10310;BME280;5200;43.236;27.986;2024-02-23T08:35:17;99941.16;;;13.43;100.00
10310;BME280;5200;43.236;27.986;2024-02-23T08:37:44;99949.94;;;13.51;100.00
10310;BME280;5200;43.236;27.986;2024-02-23T08:40:11;99947.00;;;13.55;100.00
10310;BME280;5200;43.236;27.986;2024-02-23T08:42:38;99943.72;;;13.61;100.00
10310;BME280;5200;43.236;27.986;2024-02-23T08:45:07;99940.09;;;13.62;100.00
10310;BME280;5200;43.236;27.986;2024-02-23T08:47:35;99950.13;;;13.58;100.00
10310;BME280;5200;43.236;27.986;2024-02-23T08:50:02;99949.66;;;13.55;100.00
10310;BME280;5200;43.236;27.986;2024-02-23T08:52:29;99961.50;;;13.50;100.00
10310;BME280;5200;43.236;27.986;2024-02-23T08:54:56;99957.19;;;13.49;100.00
10310;BME280;5200;43.236;27.986;2024-02-23T08:57:23;99958.06;;;13.58;100.00
10310;BME280;5200;43.236;27.986;2024-02-23T08:59:51;99960.25;;;13.63;100.00
10310;BME280;5200;43.236;27.986;2024-02-23T09:02:20;99967.56;;;13.69;100.00
10310;BME280;5200;43.236;27.986;2024-02-23T09:04:46;99971.50;;;13.65;100.00
10310;BME280;5200;43.236;27.986;2024-02-23T09:07:13;99971.63;;;13.63;100.00
10310;BME280;5200;43.236;27.986;2024-02-23T09:09:40;99959.56;;;13.61;100.00
10310;BME280;5200;43.236;27.986;2024-02-23T09:12:08;99966.22;;;13.73;100.00
10310;BME280;5200;43.236;27.986;2024-02-23T09:14:36;99962.63;;;13.82;100.00
10310;BME280;5200;43.236;27.986;2024-02-23T09:17:03;99968.31;;;13.95;100.00
10310;BME280;5200;43.236;27.986;2024-02-23T09:19:32;99975.94;;;14.07;100.00
10310;BME280;5200;43.236;27.986;2024-02-23T09:21:59;99974.28;;;14.06;100.00
10310;BME280;5200;43.236;27.986;2024-02-23T09:24:27;99963.00;;;13.95;100.00
10310;BME280;5200;43.236;27.986;2024-02-23T09:26:54;99962.25;;;14.20;100.00
10310;BME280;5200;43.236;27.986;2024-02-23T09:29:21;99965.75;;;14.36;100.00
10310;BME280;5200;43.236;27.986;2024-02-23T09:31:48;99947.09;;;14.54;100.00
10310;BME280;5200;43.236;27.986;2024-02-23T09:34:15;99952.53;;;14.53;100.00
10310;BME280;5200;43.236;27.986;2024-02-23T09:36:44;99947.88;;;14.38;100.00
10310;BME280;5200;43.236;27.986;2024-02-23T09:39:11;99947.59;;;14.42;100.00
10310;BME280;5200;43.236;27.986;2024-02-23T09:41:39;99945.44;;;14.37;100.00
10310;BME280;5200;43.236;27.986;2024-02-23T09:44:07;99939.97;;;14.47;100.00
10310;BME280;5200;43.236;27.986;2024-02-23T09:46:36;99925.25;;;14.44;100.00
10310;BME280;5200;43.236;27.986;2024-02-23T09:49:04;99927.38;;;14.32;100.00
10310;BME280;5200;43.236;27.986;2024-02-23T09:51:33;99926.88;;;14.29;100.00
10310;BME280;5200;43.236;27.986;2024-02-23T09:54:02;99922.06;;;14.24;100.00
10310;BME280;5200;43.236;27.986;2024-02-23T09:56:29;99922.75;;;14.18;100.00
10310;BME280;5200;43.236;27.986;2024-02-23T09:59:00;99927.69;;;14.21;100.00
10310;BME280;5200;43.236;27.986;2024-02-23T10:01:29;99917.78;;;14.23;100.00
10310;BME280;5200;43.236;27.986;2024-02-23T10:03:59;99925.38;;;14.26;100.00
10310;BME280;5200;43.236;27.986;2024-02-23T10:06:27;99918.78;;;14.30;100.00
10310;BME280;5200;43.236;27.986;2024-02-23T10:08:54;99925.06;;;14.37;100.00
10310;BME280;5200;43.236;27.986;2024-02-23T10:11:24;99917.78;;;14.23;100.00
10310;BME280;5200;43.236;27.986;2024-02-23T10:13:51;99906.69;;;14.20;100.00
10310;BME280;5200;43.236;27.986;2024-02-23T10:16:18;99900.75;;;14.26;100.00
10310;BME280;5200;43.236;27.986;2024-02-23T10:18:47;99906.53;;;14.46;100.00
10310;BME280;5200;43.236;27.986;2024-02-23T10:21:14;99918.44;;;14.33;100.00
10310;BME280;5200;43.236;27.986;2024-02-23T10:23:42;99908.81;;;14.08;100.00
10310;BME280;5200;43.236;27.986;2024-02-23T10:26:09;99913.09;;;14.01;100.00
10310;BME280;5200;43.236;27.986;2024-02-23T10:28:37;99915.56;;;13.94;100.00
10310;BME280;5200;43.236;27.986;2024-02-23T10:31:05;99909.75;;;13.82;100.00
10310;BME280;5200;43.236;27.986;2024-02-23T10:33:32;99916.94;;;13.64;100.00
10310;BME280;5200;43.236;27.986;2024-02-23T10:36:05;99907.97;;;13.48;100.00
10310;BME280;5200;43.236;27.986;2024-02-23T10:38:35;99905.47;;;13.47;100.00
10310;BME280;5200;43.236;27.986;2024-02-23T10:41:05;99901.88;;;13.48;100.00
10310;BME280;5200;43.236;27.986;2024-02-23T10:43:39;99902.41;;;13.60;100.00
10310;BME280;5200;43.236;27.986;2024-02-23T10:46:09;99902.75;;;13.65;100.00
10310;BME280;5200;43.236;27.986;2024-02-23T10:48:40;99894.81;;;13.65;100.00
10310;BME280;5200;43.236;27.986;2024-02-23T10:51:08;99897.47;;;13.65;100.00
10310;BME280;5200;43.236;27.986;2024-02-23T10:53:38;99899.97;;;13.66;100.00
10310;BME280;5200;43.236;27.986;2024-02-23T10:56:06;99902.94;;;13.71;100.00
10310;BME280;5200;43.236;27.986;2024-02-23T10:58:33;99893.38;;;13.79;100.00
10310;BME280;5200;43.236;27.986;2024-02-23T11:01:03;99889.25;;;13.84;100.00
10310;BME280;5200;43.236;27.986;2024-02-23T11:03:31;99876.31;;;13.65;100.00
10310;BME280;5200;43.236;27.986;2024-02-23T11:05:59;99893.88;;;13.82;100.00
10310;BME280;5200;43.236;27.986;2024-02-23T11:08:27;99886.97;;;13.98;100.00
10310;BME280;5200;43.236;27.986;2024-02-23T11:10:54;99888.00;;;14.21;100.00
10310;BME280;5200;43.236;27.986;2024-02-23T11:13:29;99884.19;;;14.32;100.00
10310;BME280;5200;43.236;27.986;2024-02-23T11:16:02;99901.94;;;14.56;100.00
10310;BME280;5200;43.236;27.986;2024-02-23T11:18:30;99890.66;;;14.46;100.00
10310;BME280;5200;43.236;27.986;2024-02-23T11:20:59;99890.00;;;14.52;100.00
10310;BME280;5200;43.236;27.986;2024-02-23T11:23:27;99904.88;;;14.53;100.00
10310;BME280;5200;43.236;27.986;2024-02-23T11:26:04;99896.44;;;14.41;100.00
10310;BME280;5200;43.236;27.986;2024-02-23T11:28:31;99872.94;;;14.05;100.00
10310;BME280;5200;43.236;27.986;2024-02-23T11:30:58;99895.59;;;14.00;100.00
10310;BME280;5200;43.236;27.986;2024-02-23T11:33:29;99885.59;;;13.77;100.00
10310;BME280;5200;43.236;27.986;2024-02-23T11:36:08;99883.56;;;13.63;100.00
10310;BME280;5200;43.236;27.986;2024-02-23T11:38:35;99880.41;;;13.59;100.00
10310;BME280;5200;43.236;27.986;2024-02-23T11:41:02;99873.28;;;13.51;100.00
10310;BME280;5200;43.236;27.986;2024-02-23T11:43:29;99880.91;;;13.55;100.00
10310;BME280;5200;43.236;27.986;2024-02-23T11:45:56;99886.22;;;13.55;100.00
10310;BME280;5200;43.236;27.986;2024-02-23T11:48:23;99883.88;;;13.51;100.00
10310;BME280;5200;43.236;27.986;2024-02-23T11:50:51;99883.56;;;13.55;100.00
10310;BME280;5200;43.236;27.986;2024-02-23T11:53:18;99886.50;;;13.51;100.00
10310;BME280;5200;43.236;27.986;2024-02-23T11:55:47;99879.88;;;13.47;100.00
10310;BME280;5200;43.236;27.986;2024-02-23T11:58:15;99890.97;;;13.51;100.00
10310;BME280;5200;43.236;27.986;2024-02-23T12:00:42;99874.78;;;13.54;100.00
10310;BME280;5200;43.236;27.986;2024-02-23T12:03:09;99880.59;;;13.58;100.00
10310;BME280;5200;43.236;27.986;2024-02-23T12:05:36;99875.63;;;13.55;100.00
10310;BME280;5200;43.236;27.986;2024-02-23T12:08:05;99879.56;;;13.50;100.00
10310;BME280;5200;43.236;27.986;2024-02-23T12:10:32;99875.63;;;13.20;100.00
10310;BME280;5200;43.236;27.986;2024-02-23T12:12:59;99878.06;;;13.14;100.00
10310;BME280;5200;43.236;27.986;2024-02-23T12:15:26;99883.22;;;13.23;100.00
10310;BME280;5200;43.236;27.986;2024-02-23T12:17:54;99876.09;;;13.16;100.00
10310;BME280;5200;43.236;27.986;2024-02-23T12:20:24;99873.75;;;13.13;100.00
10310;BME280;5200;43.236;27.986;2024-02-23T12:22:51;99863.13;;;12.96;100.00
10310;BME280;5200;43.236;27.986;2024-02-23T12:25:22;99874.03;;;13.01;100.00
10310;BME280;5200;43.236;27.986;2024-02-23T12:27:54;99856.63;;;12.90;100.00
10310;BME280;5200;43.236;27.986;2024-02-23T12:30:21;99871.06;;;13.04;100.00
10310;BME280;5200;43.236;27.986;2024-02-23T12:32:48;99873.38;;;13.07;100.00
10310;BME280;5200;43.236;27.986;2024-02-23T12:35:15;99865.84;;;13.13;100.00
10310;BME280;5200;43.236;27.986;2024-02-23T12:37:42;99872.22;;;13.28;100.00
10310;BME280;5200;43.236;27.986;2024-02-23T12:40:11;99882.69;;;13.46;100.00
10310;BME280;5200;43.236;27.986;2024-02-23T12:42:39;99875.31;;;13.58;100.00
10310;BME280;5200;43.236;27.986;2024-02-23T12:45:06;99882.94;;;13.69;100.00
10310;BME280;5200;43.236;27.986;2024-02-23T12:47:33;99864.41;;;13.61;100.00
10310;BME280;5200;43.236;27.986;2024-02-23T12:50:00;99866.91;;;13.62;100.00
10310;BME280;5200;43.236;27.986;2024-02-23T12:52:27;99877.91;;;13.49;100.00
10310;BME280;5200;43.236;27.986;2024-02-23T12:54:54;99870.44;;;13.37;100.00
10310;BME280;5200;43.236;27.986;2024-02-23T12:57:21;99875.13;;;13.25;100.00